createdAt,value
2023-04-02T00:02:31.004Z,8.51
2023-04-02T00:05:30.537Z,8.47
2023-04-02T00:08:00.062Z,8.45
2023-04-02T00:10:31.273Z,8.43
2023-04-02T00:13:06.876Z,8.46
2023-04-02T00:15:35.597Z,8.44
2023-04-02T00:18:04.416Z,8.43
2023-04-02T00:20:36.936Z,8.46
2023-04-02T00:23:05.557Z,8.43
2023-04-02T00:25:42.802Z,8.44
2023-04-02T00:28:14.183Z,8.45
2023-04-02T00:30:48.675Z,8.47
2023-04-02T00:33:19.452Z,8.46
2023-04-02T00:35:48.970Z,8.46
2023-04-02T00:38:22.527Z,8.47
2023-04-02T00:40:56.492Z,8.47
2023-04-02T00:43:28.019Z,8.41
2023-04-02T00:45:58.999Z,8.41
2023-04-02T00:48:42.388Z,8.41
2023-04-02T00:51:16.203Z,8.37
2023-04-02T00:53:47.721Z,8.37
2023-04-02T00:56:20.776Z,8.35
2023-04-02T00:58:54.800Z,8.34
2023-04-02T01:01:26.321Z,8.30
2023-04-02T01:03:59.386Z,8.30
2023-04-02T01:06:31.304Z,8.29
2023-04-02T01:09:17.023Z,8.29
2023-04-02T01:12:09.993Z,8.25
2023-04-02T01:14:51.267Z,8.25
2023-04-02T01:17:36.758Z,8.25
2023-04-02T01:20:25.431Z,8.22
2023-04-02T01:22:59.456Z,8.21
2023-04-02T01:25:35.953Z,8.20
2023-04-02T01:28:11.452Z,8.17
2023-04-02T01:30:42.402Z,8.14
2023-04-02T01:33:10.495Z,8.09
2023-04-02T01:35:43.592Z,8.08
2023-04-02T01:38:19.198Z,8.04
2023-04-02T01:40:53.578Z,8.02
2023-04-02T01:43:31.087Z,8.01
2023-04-02T01:46:06.043Z,7.99
2023-04-02T01:48:33.952Z,7.96
2023-04-02T01:51:05.456Z,7.93
2023-04-02T01:53:33.370Z,7.89
2023-04-02T01:56:04.742Z,7.90
2023-04-02T01:58:34.360Z,7.86
2023-04-02T02:01:08.345Z,7.88
2023-04-02T02:03:40.300Z,7.87
2023-04-02T02:06:12.479Z,7.80
2023-04-02T02:08:46.123Z,7.77
2023-04-02T02:11:17.370Z,7.78
2023-04-02T02:13:49.413Z,7.72
2023-04-02T02:16:19.416Z,7.67
2023-04-02T02:18:51.013Z,7.71
2023-04-02T02:21:32.058Z,7.65
2023-04-02T02:24:02.200Z,7.59
2023-04-02T02:26:33.933Z,7.58
2023-04-02T02:29:07.265Z,7.53
2023-04-02T02:31:38.164Z,7.47
2023-04-02T02:34:16.413Z,7.49
2023-04-02T02:36:50.702Z,7.48
2023-04-02T02:39:25.396Z,7.43
2023-04-02T02:41:57.166Z,7.43
2023-04-02T02:44:29.483Z,7.34
2023-04-02T02:47:02.761Z,7.36
2023-04-02T02:49:33.979Z,7.32
2023-04-02T02:52:14.338Z,7.31
2023-04-02T02:55:02.731Z,7.26
2023-04-02T02:57:49.081Z,7.22
2023-04-02T03:00:19.889Z,7.17
2023-04-02T03:02:50.684Z,7.16
2023-04-02T03:05:23.911Z,7.16
2023-04-02T03:07:57.541Z,7.11
2023-04-02T03:10:35.602Z,7.09
2023-04-02T03:13:09.492Z,7.15
2023-04-02T03:15:43.226Z,7.09
2023-04-02T03:18:19.091Z,7.09
2023-04-02T03:20:50.608Z,7.01
2023-04-02T03:23:23.417Z,7.01
2023-04-02T03:25:58.305Z,6.93
2023-04-02T03:28:31.199Z,6.97
2023-04-02T03:31:03.633Z,6.92
2023-04-02T03:33:36.971Z,6.89
2023-04-02T03:36:18.745Z,6.94
2023-04-02T03:38:51.919Z,6.88
2023-04-02T03:41:27.109Z,6.93
2023-04-02T03:44:00.282Z,6.96
2023-04-02T03:46:32.533Z,6.71
2023-04-02T03:49:07.315Z,6.90
2023-04-02T03:51:41.744Z,6.99
2023-04-02T03:54:14.793Z,7.02
2023-04-02T03:56:43.976Z,6.98
2023-04-02T03:59:22.930Z,7.01
2023-04-02T04:01:57.804Z,6.96
2023-04-02T04:04:30.107Z,6.98
2023-04-02T04:06:59.549Z,6.87
2023-04-02T04:09:31.359Z,6.93
2023-04-02T04:12:09.874Z,6.93
2023-04-02T04:14:42.775Z,6.87
2023-04-02T04:17:23.732Z,6.86
2023-04-02T04:20:01.772Z,6.81
2023-04-02T04:22:33.640Z,6.80
2023-04-02T04:25:23.350Z,6.78
2023-04-02T04:28:05.671Z,6.77
2023-04-02T04:30:47.004Z,6.76
2023-04-02T04:33:22.754Z,6.75
2023-04-02T04:35:59.319Z,6.67
2023-04-02T04:38:33.900Z,6.71
2023-04-02T04:41:07.405Z,6.71
2023-04-02T04:43:47.095Z,6.73
2023-04-02T04:46:22.886Z,6.73
2023-04-02T04:48:55.667Z,6.62
2023-04-02T04:51:30.848Z,6.65
2023-04-02T04:53:59.333Z,6.67
2023-04-02T04:56:33.019Z,6.68
2023-04-02T04:59:19.220Z,6.65
2023-04-02T05:01:54.122Z,6.59
2023-04-02T05:04:27.675Z,6.58
2023-04-02T05:07:03.855Z,6.60
2023-04-02T05:09:37.976Z,6.57
2023-04-02T05:12:17.398Z,6.56
2023-04-02T05:14:51.160Z,6.58
2023-04-02T05:17:23.656Z,6.59
2023-04-02T05:19:57.683Z,6.59
2023-04-02T05:22:35.934Z,6.58
2023-04-02T05:25:16.683Z,6.59
2023-04-02T05:27:52.717Z,6.54
2023-04-02T05:30:46.605Z,6.56
2023-04-02T05:33:23.433Z,6.54
2023-04-02T05:35:57.501Z,6.53
2023-04-02T05:38:31.765Z,6.48
2023-04-02T05:41:03.214Z,6.50
2023-04-02T05:43:35.428Z,6.50
2023-04-02T05:46:16.282Z,6.48
2023-04-02T05:48:49.071Z,6.49
2023-04-02T05:51:22.476Z,6.40
2023-04-02T05:53:56.636Z,6.44
2023-04-02T05:56:27.062Z,6.44
2023-04-02T05:58:59.187Z,6.44
2023-04-02T06:01:39.081Z,6.39
2023-04-02T06:04:19.884Z,6.12
2023-04-02T06:06:53.527Z,6.28
2023-04-02T06:09:34.784Z,6.35
2023-04-02T06:12:14.436Z,6.30
2023-04-02T06:14:42.763Z,6.28
2023-04-02T06:17:15.492Z,6.29
2023-04-02T06:19:44.305Z,6.27
2023-04-02T06:22:21.547Z,6.29
2023-04-02T06:24:58.720Z,6.28
2023-04-02T06:27:28.441Z,6.22
2023-04-02T06:30:03.383Z,6.22
2023-04-02T06:32:32.814Z,6.19
2023-04-02T06:35:01.570Z,6.12
2023-04-02T06:37:33.458Z,6.13
2023-04-02T06:40:29.393Z,6.11
2023-04-02T06:43:00.506Z,6.12
2023-04-02T06:45:53.033Z,6.04
2023-04-02T06:48:48.890Z,6.07
2023-04-02T06:51:21.569Z,6.08
2023-04-02T06:53:51.656Z,6.07
2023-04-02T06:56:32.125Z,6.10
2023-04-02T06:59:01.203Z,6.09
2023-04-02T07:01:33.713Z,6.11
2023-04-02T07:04:01.824Z,6.05
2023-04-02T07:06:35.534Z,6.08
2023-04-02T07:09:03.682Z,6.11
2023-04-02T07:11:32.837Z,6.10
2023-04-02T07:14:03.699Z,6.05
2023-04-02T07:16:33.762Z,6.09
2023-04-02T07:19:04.164Z,6.04
2023-04-02T07:21:34.541Z,5.98
2023-04-02T07:24:02.677Z,6.02
2023-04-02T07:26:32.116Z,5.98
2023-04-02T07:28:59.952Z,5.93
2023-04-02T07:31:29.363Z,5.96
2023-04-02T07:33:59.826Z,5.92
2023-04-02T07:36:29.744Z,5.91
2023-04-02T07:38:57.655Z,5.89
2023-04-02T07:41:26.373Z,5.90
2023-04-02T07:43:55.620Z,5.91
2023-04-02T07:46:23.528Z,5.91
2023-04-02T07:48:51.336Z,5.92
2023-04-02T07:51:21.363Z,5.89
2023-04-02T07:53:51.065Z,5.92
2023-04-02T07:56:21.003Z,5.95
2023-04-02T07:58:48.956Z,5.90
2023-04-02T08:01:20.789Z,5.92
2023-04-02T08:03:49.601Z,5.91
2023-04-02T08:06:18.387Z,5.84
2023-04-02T08:08:46.327Z,5.76
2023-04-02T08:11:14.074Z,5.79
2023-04-02T08:13:41.940Z,5.79
2023-04-02T08:16:10.869Z,5.80
2023-04-02T08:18:40.265Z,5.77
2023-04-02T08:21:09.456Z,5.79
2023-04-02T08:23:38.118Z,5.78
2023-04-02T08:26:10.095Z,5.75
2023-04-02T08:28:38.197Z,5.74
2023-04-02T08:31:09.094Z,5.77
2023-04-02T08:33:36.998Z,5.76
2023-04-02T08:36:06.644Z,5.79
2023-04-02T08:38:34.522Z,5.74
2023-04-02T08:41:05.781Z,5.73
2023-04-02T08:43:56.698Z,5.74
2023-04-02T08:46:27.983Z,5.71
2023-04-02T08:48:59.926Z,5.68
2023-04-02T08:51:33.424Z,5.55
2023-04-02T08:54:04.570Z,5.58
2023-04-02T08:56:37.678Z,5.46
2023-04-02T08:59:10.523Z,5.27
2023-04-02T09:01:49.280Z,5.39
2023-04-02T09:04:21.896Z,5.42
2023-04-02T09:06:54.594Z,5.47
2023-04-02T09:09:24.393Z,5.48
2023-04-02T09:11:56.323Z,5.53
2023-04-02T09:14:32.731Z,5.43
2023-04-02T09:17:03.477Z,5.42
2023-04-02T09:19:37.012Z,5.40
2023-04-02T09:22:11.202Z,5.45
2023-04-02T09:24:39.183Z,5.52
2023-04-02T09:27:19.309Z,5.47
2023-04-02T09:29:49.388Z,5.50
2023-04-02T09:32:42.555Z,5.47
2023-04-02T09:35:25.410Z,5.49
2023-04-02T09:38:31.570Z,5.40
2023-04-02T09:41:02.074Z,5.49
2023-04-02T09:43:32.265Z,5.53
2023-04-02T09:46:02.742Z,5.59
2023-04-02T09:48:33.853Z,5.62
2023-04-02T09:51:23.597Z,5.57
2023-04-02T09:54:08.198Z,5.61
2023-04-02T09:56:37.765Z,5.61
2023-04-02T09:59:08.158Z,5.66
2023-04-02T10:01:38.787Z,5.66
2023-04-02T10:04:27.728Z,5.74
2023-04-02T10:06:57.980Z,5.78
2023-04-02T10:09:32.355Z,5.85
2023-04-02T10:12:01.896Z,5.86
2023-04-02T10:14:33.293Z,5.86
2023-04-02T10:17:07.177Z,5.90
2023-04-02T10:19:38.643Z,5.85
2023-04-02T10:22:13.325Z,5.88
2023-04-02T10:24:42.611Z,5.87
2023-04-02T10:27:22.736Z,5.91
2023-04-02T10:30:03.944Z,5.94
2023-04-02T10:32:38.384Z,6.03
2023-04-02T10:35:16.723Z,6.10
2023-04-02T10:38:01.974Z,6.14
2023-04-02T10:40:37.359Z,6.21
2023-04-02T10:43:35.436Z,6.19
2023-04-02T10:46:10.522Z,6.23
2023-04-02T10:48:50.033Z,6.21
2023-04-02T10:51:30.323Z,6.17
2023-04-02T10:54:06.898Z,6.22
2023-04-02T10:56:47.779Z,6.22
2023-04-02T10:59:23.694Z,6.16
2023-04-02T11:01:53.674Z,6.10
2023-04-02T11:04:26.354Z,6.17
2023-04-02T11:07:10.986Z,6.26
2023-04-02T11:09:43.829Z,6.20
2023-04-02T11:12:22.610Z,6.21
2023-04-02T11:14:52.659Z,6.26
2023-04-02T11:17:21.819Z,6.28
2023-04-02T11:19:49.781Z,6.22
2023-04-02T11:22:19.397Z,6.22
2023-04-02T11:24:51.134Z,6.16
2023-04-02T11:27:27.741Z,6.18
2023-04-02T11:30:03.936Z,6.17
2023-04-02T11:32:42.348Z,6.25
2023-04-02T11:35:37.305Z,6.28
2023-04-02T11:38:46.478Z,6.26
2023-04-02T11:41:14.361Z,6.27
2023-04-02T11:44:02.138Z,6.29
2023-04-02T11:46:46.181Z,6.32
2023-04-02T11:49:58.172Z,6.37
2023-04-02T11:52:28.905Z,6.22
2023-04-02T11:55:03.218Z,6.29
2023-04-02T11:57:52.157Z,6.35
2023-04-02T12:00:39.030Z,6.35
2023-04-02T12:03:32.273Z,6.38
2023-04-02T12:06:06.378Z,6.32
2023-04-02T12:08:57.062Z,6.42
2023-04-02T12:11:35.113Z,6.46
2023-04-02T12:14:07.884Z,6.43
2023-04-02T12:16:40.209Z,6.49
2023-04-02T12:19:10.464Z,6.52
2023-04-02T12:21:39.184Z,6.59
2023-04-02T12:24:08.070Z,6.59
2023-04-02T12:26:38.439Z,6.70
2023-04-02T12:29:33.865Z,6.75
2023-04-02T12:32:04.031Z,6.78
2023-04-02T12:34:32.101Z,6.84
2023-04-02T12:37:02.965Z,6.87
2023-04-02T12:39:32.357Z,6.91
2023-04-02T12:42:01.036Z,6.98
2023-04-02T12:44:31.100Z,6.92
2023-04-02T12:47:00.024Z,6.98
2023-04-02T12:49:39.601Z,7.03
2023-04-02T12:52:10.336Z,7.05
2023-04-02T12:54:45.021Z,7.04
2023-04-02T12:57:39.882Z,7.02
2023-04-02T13:00:31.878Z,7.03
2023-04-02T13:03:02.883Z,6.98
2023-04-02T13:05:39.575Z,7.03
2023-04-02T13:08:08.718Z,6.98
2023-04-02T13:10:37.520Z,6.99
2023-04-02T13:13:06.454Z,6.91
2023-04-02T13:15:37.127Z,6.93
2023-04-02T13:18:08.601Z,6.90
2023-04-02T13:20:40.017Z,6.90
2023-04-02T13:23:36.505Z,6.82
2023-04-02T13:26:15.942Z,6.87
2023-04-02T13:28:45.373Z,6.79
2023-04-02T13:31:17.728Z,6.82
2023-04-02T13:33:48.384Z,6.80
2023-04-02T13:36:17.853Z,6.81
2023-04-02T13:38:45.851Z,6.81
2023-04-02T13:41:22.519Z,6.85
2023-04-02T13:43:51.043Z,6.75
2023-04-02T13:46:23.489Z,6.87
2023-04-02T13:48:52.485Z,6.93
2023-04-02T13:51:23.939Z,6.96
2023-04-02T13:53:56.158Z,6.93
2023-04-02T13:56:24.706Z,7.01
2023-04-02T13:58:53.869Z,7.05
2023-04-02T14:01:25.918Z,7.02
2023-04-02T14:03:55.630Z,7.07
2023-04-02T14:06:36.308Z,7.05
2023-04-02T14:09:13.001Z,6.98
2023-04-02T14:11:49.833Z,6.95
2023-04-02T14:14:35.417Z,6.90
2023-04-02T14:17:16.234Z,6.91
2023-04-02T14:20:03.927Z,6.85
2023-04-02T14:22:47.312Z,6.93
2023-04-02T14:25:26.039Z,6.93
2023-04-02T14:28:02.080Z,6.91
2023-04-02T14:30:44.178Z,6.84
2023-04-02T14:33:28.747Z,6.82
2023-04-02T14:36:06.183Z,6.78
2023-04-02T14:38:43.491Z,6.76
2023-04-02T14:41:17.596Z,6.83
2023-04-02T14:43:46.968Z,6.58
2023-04-02T14:46:15.065Z,6.74
2023-04-02T14:48:51.229Z,6.76
2023-04-02T14:51:26.406Z,6.73
2023-04-02T14:54:03.699Z,6.79
2023-04-02T14:56:38.286Z,6.77
2023-04-02T14:59:20.657Z,6.74
2023-04-02T15:01:51.714Z,6.76
2023-04-02T15:04:26.636Z,6.76
2023-04-02T15:07:02.605Z,6.78
2023-04-02T15:09:38.212Z,6.82
2023-04-02T15:12:11.901Z,6.85
2023-04-02T15:14:46.418Z,6.88
2023-04-02T15:17:14.834Z,6.84
2023-04-02T15:20:05.181Z,6.84
2023-04-02T15:22:41.289Z,6.60
2023-04-02T15:25:27.474Z,6.86
2023-04-02T15:28:08.231Z,6.93
2023-04-02T15:30:40.207Z,6.90
2023-04-02T15:33:41.425Z,6.88
2023-04-02T15:36:46.606Z,6.92
2023-04-02T15:39:27.515Z,6.89
2023-04-02T15:42:09.905Z,6.89
2023-04-02T15:44:46.207Z,6.85
2023-04-02T15:47:24.954Z,6.89
2023-04-02T15:50:03.248Z,6.91
2023-04-02T15:52:37.502Z,6.94
2023-04-02T15:55:19.691Z,6.91
2023-04-02T15:58:02.814Z,6.93
2023-04-02T16:00:31.769Z,6.67
2023-04-02T16:03:18.282Z,6.95
2023-04-02T16:05:59.070Z,6.97
2023-04-02T16:08:43.287Z,6.99
2023-04-02T16:11:13.053Z,7.00
2023-04-02T16:13:43.248Z,6.98
2023-04-02T16:16:19.183Z,7.05
2023-04-02T16:18:55.680Z,7.06
2023-04-02T16:21:26.084Z,7.02
2023-04-02T16:23:54.227Z,6.99
2023-04-02T16:26:34.346Z,7.04
2023-04-02T16:29:17.006Z,7.08
2023-04-02T16:31:51.242Z,7.04
2023-04-02T16:34:31.564Z,7.07
2023-04-02T16:37:06.284Z,7.07
2023-04-02T16:39:40.662Z,7.07
2023-04-02T16:42:19.194Z,7.08
2023-04-02T16:45:01.515Z,7.03
2023-04-02T16:47:47.399Z,7.05
2023-04-02T16:50:24.427Z,7.06
2023-04-02T16:52:59.285Z,7.05
2023-04-02T16:55:39.397Z,7.04
2023-04-02T16:58:24.050Z,7.03
2023-04-02T17:00:58.790Z,7.02
2023-04-02T17:03:48.776Z,6.96
2023-04-02T17:06:24.589Z,6.91
2023-04-02T17:08:57.931Z,6.93
2023-04-02T17:11:30.959Z,6.92
2023-04-02T17:14:06.108Z,6.63
2023-04-02T17:16:42.594Z,6.87
2023-04-02T17:19:12.480Z,6.89
2023-04-02T17:21:42.778Z,6.88
2023-04-02T17:24:20.939Z,6.88
2023-04-02T17:27:08.000Z,6.86
2023-04-02T17:29:39.662Z,6.83
2023-04-02T17:32:17.984Z,6.83
2023-04-02T17:34:45.988Z,6.81
2023-04-02T17:37:26.232Z,6.80
2023-04-02T17:40:03.297Z,6.79
2023-04-02T17:42:48.058Z,6.76
2023-04-02T17:45:21.445Z,6.72
2023-04-02T17:48:00.191Z,6.70
2023-04-02T17:50:39.576Z,6.69
2023-04-02T17:53:24.232Z,6.61
2023-04-02T17:56:03.604Z,6.60
2023-04-02T17:58:50.274Z,6.59
2023-04-02T18:01:26.472Z,6.56
2023-04-02T18:04:05.673Z,6.53
2023-04-02T18:06:42.669Z,6.49
2023-04-02T18:09:33.942Z,6.51
2023-04-02T18:12:13.015Z,6.50
2023-04-02T18:15:00.324Z,6.49
2023-04-02T18:17:39.900Z,6.46
2023-04-02T18:20:24.399Z,6.49
2023-04-02T18:23:03.378Z,6.47
2023-04-02T18:25:52.698Z,6.47
2023-04-02T18:28:33.282Z,6.45
2023-04-02T18:31:07.160Z,6.40
2023-04-02T18:34:08.722Z,6.36
2023-04-02T18:36:50.965Z,6.39
2023-04-02T18:39:32.604Z,6.35
2023-04-02T18:42:06.568Z,6.35
2023-04-02T18:44:49.849Z,6.34
2023-04-02T18:47:22.058Z,6.07
2023-04-02T18:50:12.142Z,6.26
2023-04-02T18:52:42.758Z,6.27
2023-04-02T18:55:17.132Z,6.28
2023-04-02T18:57:48.665Z,6.27
2023-04-02T19:00:25.318Z,6.27
2023-04-02T19:02:57.780Z,6.26
2023-04-02T19:05:33.944Z,6.26
2023-04-02T19:08:09.584Z,6.25
2023-04-02T19:10:39.621Z,6.24
2023-04-02T19:13:15.118Z,6.25
2023-04-02T19:16:04.186Z,6.25
2023-04-02T19:18:44.084Z,6.24
2023-04-02T19:21:21.470Z,6.22
2023-04-02T19:24:03.945Z,6.24
2023-04-02T19:26:40.169Z,6.21
2023-04-02T19:29:23.427Z,6.24
2023-04-02T19:31:56.109Z,6.23
2023-04-02T19:34:34.219Z,6.25
2023-04-02T19:37:07.178Z,6.25
2023-04-02T19:40:09.305Z,6.26
2023-04-02T19:42:46.729Z,6.24
2023-04-02T19:45:30.363Z,6.22
2023-04-02T19:48:00.746Z,6.20
2023-04-02T19:50:29.622Z,6.18
2023-04-02T19:52:57.660Z,6.17
2023-04-02T19:55:27.747Z,6.17
2023-04-02T19:58:08.390Z,6.14
2023-04-02T20:00:43.653Z,6.11
2023-04-02T20:03:11.539Z,6.10
2023-04-02T20:05:42.710Z,6.10
2023-04-02T20:08:11.127Z,6.07
2023-04-02T20:10:40.886Z,6.06
2023-04-02T20:13:09.156Z,6.04
2023-04-02T20:15:37.316Z,6.03
2023-04-02T20:18:06.204Z,6.03
2023-04-02T20:20:34.334Z,6.00
2023-04-02T20:23:02.513Z,5.99
2023-04-02T20:25:31.877Z,6.00
2023-04-02T20:28:03.819Z,5.99
2023-04-02T20:30:32.839Z,5.96
2023-04-02T20:33:01.096Z,5.97
2023-04-02T20:35:29.652Z,5.98
2023-04-02T20:37:57.557Z,5.97
2023-04-02T20:40:25.493Z,5.97
2023-04-02T20:42:53.448Z,5.97
2023-04-02T20:45:22.732Z,5.97
2023-04-02T20:47:50.907Z,5.96
2023-04-02T20:50:18.963Z,5.96
2023-04-02T20:52:46.835Z,5.95
2023-04-02T20:55:14.920Z,5.95
2023-04-02T20:57:42.970Z,5.95
2023-04-02T21:00:13.479Z,5.96
2023-04-02T21:02:42.906Z,5.95
2023-04-02T21:05:10.928Z,5.93
2023-04-02T21:07:38.931Z,5.93
2023-04-02T21:10:07.674Z,5.92
2023-04-02T21:12:35.625Z,5.90
2023-04-02T21:15:03.477Z,5.88
2023-04-02T21:17:31.474Z,5.88
2023-04-02T21:20:00.796Z,5.87
2023-04-02T21:22:28.592Z,5.84
2023-04-02T21:24:56.481Z,5.83
2023-04-02T21:27:25.954Z,5.81
2023-04-02T21:29:53.982Z,5.78
2023-04-02T21:32:22.322Z,5.77
2023-04-02T21:34:50.572Z,5.76
2023-04-02T21:37:19.813Z,5.75
2023-04-02T21:39:50.086Z,5.71
2023-04-02T21:42:18.451Z,5.68
2023-04-02T21:44:46.318Z,5.66
2023-04-02T21:47:14.345Z,5.63
2023-04-02T21:49:42.241Z,5.62
2023-04-02T21:52:10.319Z,5.59
2023-04-02T21:54:39.685Z,5.57
2023-04-02T21:57:07.713Z,5.55
2023-04-02T21:59:35.727Z,5.53
2023-04-02T22:02:04.956Z,5.52
2023-04-02T22:04:33.478Z,5.50
2023-04-02T22:07:01.772Z,5.50
2023-04-02T22:09:30.384Z,5.47
2023-04-02T22:11:59.980Z,5.48
2023-04-02T22:14:28.586Z,5.46
2023-04-02T22:16:58.649Z,5.45
2023-04-02T22:19:27.166Z,5.44
2023-04-02T22:21:56.269Z,5.43
2023-04-02T22:24:25.206Z,5.44
2023-04-02T22:26:53.560Z,5.42
2023-04-02T22:29:23.186Z,5.42
2023-04-02T22:31:51.094Z,5.41
2023-04-02T22:34:18.964Z,5.39
2023-04-02T22:36:46.699Z,5.39
2023-04-02T22:39:15.157Z,5.38
2023-04-02T22:41:43.320Z,5.35
2023-04-02T22:44:15.486Z,5.34
2023-04-02T22:46:44.843Z,5.29
2023-04-02T22:49:15.881Z,5.26
2023-04-02T22:51:44.590Z,5.21
2023-04-02T22:54:12.534Z,5.17
2023-04-02T22:56:40.401Z,5.13
2023-04-02T22:59:08.109Z,5.08
2023-04-02T23:01:37.156Z,5.05
2023-04-02T23:04:06.617Z,5.03
2023-04-02T23:06:34.544Z,5.00
2023-04-02T23:09:02.355Z,4.98
2023-04-02T23:11:30.301Z,4.97
2023-04-02T23:13:59.252Z,4.98
2023-04-02T23:16:29.404Z,4.97
2023-04-02T23:18:57.666Z,4.96
2023-04-02T23:21:27.293Z,4.97
2023-04-02T23:23:55.139Z,4.97
2023-04-02T23:26:26.066Z,4.97
2023-04-02T23:28:53.898Z,4.97
2023-04-02T23:31:23.974Z,4.97
2023-04-02T23:33:54.226Z,4.98
2023-04-02T23:36:26.718Z,4.98
2023-04-02T23:38:57.315Z,4.96
2023-04-02T23:41:26.971Z,4.97
2023-04-02T23:43:55.789Z,4.96
2023-04-02T23:46:24.168Z,4.96
2023-04-02T23:48:52.209Z,4.95
2023-04-02T23:51:20.516Z,4.93
2023-04-02T23:53:48.563Z,4.90
2023-04-02T23:56:18.109Z,4.89
2023-04-02T23:58:46.214Z,4.84
